Time;durP1;ratioP1;P1;durP2;ratioP2;P2;SDS_P1;SDS_P2;PMS_P1;PMS_P2;Temp;Humidity;BMP_temperature;BMP_pressure;BME280_temperature;BME280_humidity;BME280_pressure;Samples;Min_cycle;Max_cycle;Signal;HPM_P1;HPM_P2
2023/05/02 00:01:08;;;;;;;3.63;3.33;;;17.70;56.70;;;;;;5071529;28;20169;-60
2023/05/02 00:03:34;;;;;;;5.00;3.80;;;17.70;56.70;;;;;;5072744;28;20213;-60
2023/05/02 00:05:59;;;;;;;3.83;3.53;;;17.60;56.60;;;;;;5072948;28;20163;-60
2023/05/02 00:08:25;;;;;;;3.65;3.35;;;17.60;56.60;;;;;;5071337;28;20714;-60
2023/05/02 00:10:50;;;;;;;3.70;3.40;;;17.60;56.60;;;;;;5072546;28;20257;-59
2023/05/02 00:13:16;;;;;;;3.60;3.30;;;17.60;56.60;;;;;;5072254;28;20210;-59
2023/05/02 00:15:41;;;;;;;3.30;3.00;;;17.60;56.60;;;;;;5071747;28;20257;-60
2023/05/02 00:18:07;;;;;;;4.28;3.88;;;17.60;56.60;;;;;;5072329;28;20270;-60
2023/05/02 00:20:32;;;;;;;3.63;3.33;;;17.60;56.60;;;;;;5072637;28;20261;-59
2023/05/02 00:22:58;;;;;;;4.28;3.88;;;17.60;56.60;;;;;;5071610;28;20550;-59
2023/05/02 00:25:23;;;;;;;3.58;3.28;;;17.60;56.60;;;;;;5071793;28;20174;-60
2023/05/02 00:27:50;;;;;;;3.88;3.47;;;17.60;56.60;;;;;;5072263;28;20190;-60
2023/05/02 00:30:16;;;;;;;3.60;3.30;;;17.60;56.60;;;;;;5070635;28;20181;-60
2023/05/02 00:32:42;;;;;;;3.17;2.88;;;17.60;56.60;;;;;;5072373;28;20264;-60
2023/05/02 00:35:08;;;;;;;3.55;3.25;;;17.60;56.60;;;;;;5072170;28;20257;-60
2023/05/02 00:37:33;;;;;;;3.88;3.58;;;17.60;56.70;;;;;;5071532;28;20186;-59
2023/05/02 00:39:59;;;;;;;3.58;3.20;;;17.60;56.60;;;;;;5072297;28;20262;-60
2023/05/02 00:42:24;;;;;;;3.42;3.17;;;17.60;56.60;;;;;;5071707;28;20228;-59
2023/05/02 00:44:50;;;;;;;3.60;3.30;;;17.60;56.60;;;;;;5071392;28;20174;-60
2023/05/02 00:47:16;;;;;;;3.58;3.28;;;17.60;56.70;;;;;;5071748;28;20187;-59
2023/05/02 00:49:41;;;;;;;3.58;3.28;;;17.60;56.60;;;;;;5071588;28;20162;-59
2023/05/02 00:52:07;;;;;;;3.70;3.40;;;17.60;56.60;;;;;;5071764;28;20560;-59
2023/05/02 00:54:33;;;;;;;3.42;3.22;;;17.60;56.70;;;;;;5072290;28;20645;-59
2023/05/02 00:56:58;;;;;;;3.95;3.63;;;17.60;56.70;;;;;;5071392;28;20174;-60
2023/05/02 00:59:24;;;;;;;3.15;2.95;;;17.60;56.60;;;;;;5071742;28;20221;-60
2023/05/02 01:02:00;;;;;;;4.55;3.22;;;17.60;56.70;;;;;;5072196;28;20532;-60
2023/05/02 01:04:57;;;;;;;3.50;3.20;;;17.60;56.70;;;;;;5069747;28;20591;-60
2023/05/02 01:08:01;;;;;;;4.10;3.15;;;17.60;56.70;;;;;;5070532;28;20262;-59
2023/05/02 01:10:52;;;;;;;3.72;3.42;;;17.60;56.70;;;;;;5071758;28;20183;-58
2023/05/02 01:13:25;;;;;;;3.55;3.03;;;17.50;56.70;;;;;;5070294;28;20171;-59
2023/05/02 01:15:51;;;;;;;3.55;3.25;;;17.60;56.70;;;;;;5071960;28;20178;-59
2023/05/02 01:18:19;;;;;;;3.05;2.85;;;17.50;56.60;;;;;;5069530;28;20185;-59
2023/05/02 01:20:45;;;;;;;3.40;3.10;;;17.50;56.70;;;;;;5071944;28;20178;-59
2023/05/02 01:23:45;;;;;;;3.38;3.10;;;17.50;56.70;;;;;;5070424;28;20310;-59
2023/05/02 01:26:36;;;;;;;3.40;3.10;;;17.50;56.70;;;;;;5070617;28;20308;-59
2023/05/02 01:29:02;;;;;;;3.15;2.95;;;17.50;56.70;;;;;;5071659;28;20178;-60
2023/05/02 01:31:36;;;;;;;3.53;3.22;;;17.50;56.70;;;;;;5070378;28;20248;-59
2023/05/02 01:34:03;;;;;;;3.45;3.15;;;17.50;56.70;;;;;;5069996;28;20565;-60
2023/05/02 01:36:30;;;;;;;3.22;3.03;;;17.50;56.70;;;;;;5070179;28;20542;-60
2023/05/02 01:38:56;;;;;;;3.75;3.45;;;17.50;56.70;;;;;;5070734;28;20182;-59
2023/05/02 01:41:26;;;;;;;3.13;2.92;;;17.50;56.70;;;;;;5071685;28;20174;-59
2023/05/02 01:43:53;;;;;;;3.58;3.28;;;17.50;56.70;;;;;;5073933;28;20578;-59
2023/05/02 01:46:19;;;;;;;3.85;2.95;;;17.50;56.70;;;;;;5073083;28;20174;-59
2023/05/02 01:48:45;;;;;;;3.78;3.47;;;17.50;56.70;;;;;;5074174;28;20181;-59
2023/05/02 01:51:10;;;;;;;3.17;2.97;;;17.50;56.70;;;;;;5074807;28;20170;-59
2023/05/02 01:53:36;;;;;;;3.30;3.00;;;17.50;56.70;;;;;;5074350;28;20175;-59
2023/05/02 01:56:01;;;;;;;3.60;3.30;;;17.50;56.70;;;;;;5074102;28;20181;-59
2023/05/02 01:58:28;;;;;;;3.45;3.17;;;17.50;56.70;;;;;;5073565;28;20260;-59
2023/05/02 02:00:53;;;;;;;3.38;3.08;;;17.50;56.80;;;;;;5074357;28;20249;-60
2023/05/02 02:03:19;;;;;;;3.42;3.13;;;17.50;56.80;;;;;;5073177;28;20624;-59
2023/05/02 02:05:44;;;;;;;2.97;2.78;;;17.50;56.80;;;;;;5074800;28;20280;-59
2023/05/02 02:08:10;;;;;;;3.05;2.85;;;17.50;56.80;;;;;;5072295;28;20625;-59
2023/05/02 02:10:39;;;;;;;3.45;3.08;;;17.50;56.80;;;;;;5075044;28;20166;-59
2023/05/02 02:13:18;;;;;;;3.60;3.30;;;17.50;56.80;;;;;;5073509;28;20219;-59
2023/05/02 02:15:46;;;;;;;3.22;3.03;;;17.50;56.80;;;;;;5072897;28;20232;-59
2023/05/02 02:18:20;;;;;;;3.40;3.10;;;17.50;56.80;;;;;;5074334;28;20202;-59
2023/05/02 02:20:46;;;;;;;2.95;2.75;;;17.50;56.80;;;;;;5073371;28;20626;-59
2023/05/02 02:23:12;;;;;;;3.78;2.90;;;17.50;56.80;;;;;;5072389;28;20210;-59
2023/05/02 02:25:37;;;;;;;2.97;2.78;;;17.50;56.80;;;;;;5073312;28;20872;-59
2023/05/02 02:28:03;;;;;;;3.20;2.95;;;17.40;56.80;;;;;;5072849;28;20190;-59
2023/05/02 02:30:28;;;;;;;3.05;2.85;;;17.40;56.80;;;;;;5074204;28;20272;-59
2023/05/02 02:32:54;;;;;;;3.03;2.80;;;17.40;56.80;;;;;;5074490;28;20533;-60
2023/05/02 02:35:20;;;;;;;3.10;2.90;;;17.40;56.80;;;;;;5073189;28;20278;-59
2023/05/02 02:38:11;;;;;;;3.10;2.90;;;17.40;56.90;;;;;;5073318;28;20257;-60
2023/05/02 02:40:48;;;;;;;3.40;3.10;;;17.40;56.80;;;;;;5073106;28;20177;-59
2023/05/02 02:43:26;;;;;;;2.90;2.58;;;17.40;56.80;;;;;;5071868;28;20300;-59
2023/05/02 02:46:06;;;;;;;2.47;2.28;;;17.40;56.90;;;;;;5074018;28;20239;-59
2023/05/02 02:48:59;;;;;;;3.13;2.83;;;17.40;56.90;;;;;;5073080;28;20178;-59
2023/05/02 02:51:37;;;;;;;2.60;2.40;;;17.40;56.90;;;;;;5071718;28;20186;-59
2023/05/02 02:54:23;;;;;;;3.03;2.83;;;17.40;56.90;;;;;;5073238;28;20659;-59
2023/05/02 02:56:53;;;;;;;2.90;2.70;;;17.40;56.80;;;;;;5072045;28;20178;-59
2023/05/02 02:59:23;;;;;;;2.75;2.42;;;17.40;56.80;;;;;;5073714;28;20174;-60
2023/05/02 03:02:09;;;;;;;2.38;2.17;;;17.40;56.90;;;;;;5072629;28;20645;-60
2023/05/02 03:04:40;;;;;;;3.20;2.75;;;17.40;56.90;;;;;;5071868;28;20197;-59
2023/05/02 03:07:06;;;;;;;2.72;2.53;;;17.40;56.90;;;;;;5072280;28;20175;-59
2023/05/02 03:09:45;;;;;;;3.00;2.55;;;17.30;56.80;;;;;;5072712;28;20487;-59
2023/05/02 03:12:11;;;;;;;2.58;2.38;;;17.40;56.90;;;;;;5072683;28;20178;-59
2023/05/02 03:14:37;;;;;;;2.72;2.53;;;17.30;56.80;;;;;;5073478;28;20175;-59
2023/05/02 03:17:02;;;;;;;2.60;2.40;;;17.40;56.90;;;;;;5072131;28;20211;-59
2023/05/02 03:19:28;;;;;;;2.45;2.25;;;17.30;56.80;;;;;;5072574;28;20170;-59
2023/05/02 03:21:54;;;;;;;2.95;2.65;;;17.30;56.80;;;;;;5073400;28;20200;-59
2023/05/02 03:24:19;;;;;;;2.60;2.40;;;17.30;56.80;;;;;;5072218;28;20214;-59
2023/05/02 03:26:46;;;;;;;2.75;2.38;;;17.30;56.80;;;;;;5073245;28;20230;-59
2023/05/02 03:29:12;;;;;;;2.58;2.20;;;17.30;56.80;;;;;;5073215;28;20286;-60
2023/05/02 03:31:37;;;;;;;2.67;2.47;;;17.30;56.80;;;;;;5072541;28;20191;-59
2023/05/02 03:34:03;;;;;;;2.28;2.08;;;17.30;56.80;;;;;;5073434;28;20171;-59
2023/05/02 03:36:28;;;;;;;2.33;2.10;;;17.30;56.80;;;;;;5072937;28;20178;-60
2023/05/02 03:38:54;;;;;;;2.55;2.35;;;17.30;56.80;;;;;;5072578;28;20170;-60
2023/05/02 03:41:19;;;;;;;2.50;2.30;;;17.30;56.80;;;;;;5073055;28;20201;-60
2023/05/02 03:43:45;;;;;;;4.03;2.10;;;17.30;56.80;;;;;;5072912;28;20254;-60
2023/05/02 03:46:10;;;;;;;3.08;2.60;;;17.30;56.80;;;;;;5071915;28;20174;-59
2023/05/02 03:48:36;;;;;;;2.70;2.50;;;17.30;56.90;;;;;;5073019;28;20182;-59
2023/05/02 03:51:03;;;;;;;2.38;2.20;;;17.30;56.80;;;;;;5072900;28;20205;-59
2023/05/02 03:53:30;;;;;;;2.53;2.33;;;17.30;56.80;;;;;;5071847;28;20206;-59
2023/05/02 03:55:56;;;;;;;1.88;1.77;;;17.30;56.80;;;;;;5072885;28;20179;-59
2023/05/02 03:58:22;;;;;;;2.30;2.10;;;17.30;56.90;;;;;;5072598;28;20228;-60
2023/05/02 04:00:47;;;;;;;2.10;2.00;;;17.30;56.80;;;;;;5071931;28;20265;-60
2023/05/02 04:03:13;;;;;;;2.55;1.95;;;17.30;56.80;;;;;;5072179;28;20300;-59
2023/05/02 04:05:38;;;;;;;2.03;1.90;;;17.30;56.90;;;;;;5071672;28;20210;-59
2023/05/02 04:08:04;;;;;;;1.85;1.75;;;17.30;56.80;;;;;;5071791;28;20204;-59
2023/05/02 04:10:30;;;;;;;2.00;1.80;;;17.30;56.90;;;;;;5072625;28;20232;-59
2023/05/02 04:12:55;;;;;;;2.47;2.28;;;17.30;56.90;;;;;;5072488;28;20269;-59
2023/05/02 04:15:21;;;;;;;2.03;1.92;;;17.30;56.80;;;;;;5071409;28;20177;-59
2023/05/02 04:17:46;;;;;;;2.33;1.83;;;17.30;56.90;;;;;;5072691;28;20175;-59
2023/05/02 04:20:12;;;;;;;2.60;2.10;;;17.20;56.80;;;;;;5072295;28;20167;-59
2023/05/02 04:22:41;;;;;;;1.88;1.75;;;17.20;56.80;;;;;;5071672;28;20202;-59
2023/05/02 04:25:06;;;;;;;1.75;1.65;;;17.30;56.80;;;;;;5072098;28;20227;-59
2023/05/02 04:27:32;;;;;;;2.70;2.13;;;17.20;56.80;;;;;;5071902;28;20229;-59
2023/05/02 04:29:57;;;;;;;2.63;1.75;;;17.20;56.80;;;;;;5072154;28;20162;-60
2023/05/02 04:32:23;;;;;;;2.13;1.83;;;17.20;56.80;;;;;;5072078;28;20363;-60
2023/05/02 04:34:49;;;;;;;1.65;1.55;;;17.20;56.80;;;;;;5071844;28;20171;-60
2023/05/02 04:37:14;;;;;;;2.50;2.00;;;17.20;57.00;;;;;;5072002;28;20170;-60
2023/05/02 04:39:40;;;;;;;2.03;1.90;;;17.20;56.80;;;;;;5072214;28;20502;-60
2023/05/02 04:42:06;;;;;;;1.60;1.50;;;17.20;56.80;;;;;;5071123;28;20170;-60
2023/05/02 04:44:31;;;;;;;2.00;1.80;;;17.20;56.80;;;;;;5072188;28;20178;-60
2023/05/02 04:46:57;;;;;;;2.63;2.10;;;17.20;56.80;;;;;;5072246;28;20250;-60
2023/05/02 04:49:22;;;;;;;2.30;2.10;;;17.20;56.80;;;;;;5071246;28;20536;-60
2023/05/02 04:51:48;;;;;;;1.92;1.73;;;17.20;56.80;;;;;;5072094;28;20720;-60
2023/05/02 04:54:14;;;;;;;2.13;1.70;;;17.20;56.80;;;;;;5071794;28;20261;-60
2023/05/02 04:56:40;;;;;;;2.03;1.80;;;17.20;56.70;;;;;;5071274;28;20202;-60
2023/05/02 04:59:05;;;;;;;2.00;1.80;;;17.20;56.70;;;;;;5071571;28;20208;-61
2023/05/02 05:01:31;;;;;;;3.90;2.15;;;17.20;56.80;;;;;;5072160;28;20261;-61
2023/05/02 05:03:56;;;;;;;2.63;2.00;;;17.20;56.70;;;;;;5071469;28;20256;-61
2023/05/02 05:06:23;;;;;;;2.33;1.80;;;17.20;56.70;;;;;;5071905;28;20269;-60
2023/05/02 05:08:48;;;;;;;2.00;1.85;;;17.20;56.70;;;;;;5072055;28;20183;-61
2023/05/02 05:11:17;;;;;;;2.78;1.83;;;17.20;56.60;;;;;;5070945;28;20510;-60
2023/05/02 05:13:42;;;;;;;1.80;1.67;;;17.30;56.70;;;;;;5071679;28;20224;-60
2023/05/02 05:16:08;;;;;;;2.00;1.80;;;17.20;56.60;;;;;;5073018;28;20175;-60
2023/05/02 05:18:39;;;;;;;1.67;1.58;;;17.30;56.70;;;;;;5075316;28;20174;-60
2023/05/02 05:21:08;;;;;;;2.20;1.85;;;17.20;56.60;;;;;;5075676;28;20254;-60
2023/05/02 05:23:34;;;;;;;2.08;1.55;;;17.20;56.60;;;;;;5075744;28;20304;-60
2023/05/02 05:26:09;;;;;;;2.47;1.50;;;17.20;56.60;;;;;;5074764;28;20301;-60
2023/05/02 05:28:35;;;;;;;1.95;1.70;;;17.20;56.60;;;;;;5075841;28;20186;-60
2023/05/02 05:31:07;;;;;;;1.85;1.48;;;17.20;56.60;;;;;;5074743;28;20167;-61
2023/05/02 05:33:33;;;;;;;2.50;1.55;;;17.20;56.50;;;;;;5075505;28;20175;-62
2023/05/02 05:36:09;;;;;;;2.28;1.75;;;17.20;56.60;;;;;;5075537;28;20265;-61
2023/05/02 05:38:35;;;;;;;2.38;1.88;;;17.30;56.60;;;;;;5074498;28;20194;-61
2023/05/02 05:41:00;;;;;;;1.98;1.40;;;17.20;56.50;;;;;;5075251;28;20167;-61
2023/05/02 05:43:26;;;;;;;2.70;1.50;;;17.20;56.60;;;;;;5074910;28;20218;-61
2023/05/02 05:45:52;;;;;;;3.28;1.80;;;17.20;56.60;;;;;;5074742;28;20171;-60
2023/05/02 05:48:18;;;;;;;1.73;1.60;;;17.20;56.50;;;;;;5075121;28;20300;-60
2023/05/02 05:50:43;;;;;;;2.08;1.40;;;17.30;56.50;;;;;;5075150;28;20209;-60
2023/05/02 05:53:09;;;;;;;2.58;1.67;;;17.30;56.50;;;;;;5074150;28;20546;-60
2023/05/02 05:55:35;;;;;;;2.88;1.52;;;17.30;56.50;;;;;;5075206;28;20500;-60
2023/05/02 05:58:01;;;;;;;2.78;1.58;;;17.30;56.50;;;;;;5075261;28;20280;-60
2023/05/02 06:00:26;;;;;;;1.77;1.40;;;17.30;56.50;;;;;;5074281;28;20191;-61
2023/05/02 06:02:52;;;;;;;2.97;1.77;;;17.30;56.50;;;;;;5075115;28;20206;-60
2023/05/02 06:05:18;;;;;;;1.63;1.38;;;17.30;56.50;;;;;;5074990;28;20197;-60
2023/05/02 06:07:43;;;;;;;2.13;1.65;;;17.20;56.50;;;;;;5074168;28;20277;-60
2023/05/02 06:10:09;;;;;;;1.75;1.60;;;17.30;56.50;;;;;;5074434;28;20179;-60
2023/05/02 06:12:35;;;;;;;1.95;1.80;;;17.30;56.50;;;;;;5075022;28;20202;-60
2023/05/02 06:15:00;;;;;;;1.60;1.50;;;17.30;56.50;;;;;;5074262;28;20167;-59
2023/05/02 06:17:26;;;;;;;2.00;1.50;;;17.30;56.50;;;;;;5074829;28;20166;-60
2023/05/02 06:19:51;;;;;;;4.20;1.98;;;17.30;56.50;;;;;;5074878;28;20655;-60
2023/05/02 06:22:17;;;;;;;2.22;1.52;;;17.30;56.50;;;;;;5073556;28;20179;-60
2023/05/02 06:24:42;;;;;;;2.03;1.83;;;17.30;56.50;;;;;;5074617;28;20170;-60
2023/05/02 06:27:08;;;;;;;1.70;1.45;;;17.30;56.50;;;;;;5072863;28;20215;-60
2023/05/02 06:29:33;;;;;;;3.40;1.80;;;17.30;56.50;;;;;;5074460;28;20265;-61
2023/05/02 06:31:59;;;;;;;2.15;1.40;;;17.30;56.40;;;;;;5074629;28;20193;-61
2023/05/02 06:34:25;;;;;;;2.10;1.30;;;17.30;56.40;;;;;;5073463;28;20174;-61
2023/05/02 06:36:57;;;;;;;4.72;1.83;;;17.30;56.40;;;;;;5074455;28;20186;-60
2023/05/02 06:39:26;;;;;;;2.15;1.40;;;17.30;56.40;;;;;;5074264;28;20579;-60
2023/05/02 06:41:56;;;;;;;2.30;1.63;;;17.30;56.40;;;;;;5073790;28;20182;-60
2023/05/02 06:44:22;;;;;;;3.55;1.70;;;17.30;57.00;;;;;;5073907;28;20673;-61
2023/05/02 06:46:48;;;;;;;2.35;1.63;;;17.30;56.40;;;;;;5074447;28;20179;-61
2023/05/02 06:49:13;;;;;;;2.20;1.65;;;17.30;56.40;;;;;;5073356;28;20710;-60
2023/05/02 06:51:42;;;;;;;2.83;1.65;;;17.30;56.40;;;;;;5074034;28;20179;-60
2023/05/02 06:54:11;;;;;;;1.92;1.67;;;17.30;56.40;;;;;;5073927;28;20182;-60
2023/05/02 06:56:36;;;;;;;2.30;1.90;;;17.30;56.40;;;;;;5073280;28;20171;-61
2023/05/02 06:59:02;;;;;;;1.77;1.65;;;17.30;56.30;;;;;;5073989;28;20189;-61
2023/05/02 07:01:27;;;;;;;3.03;1.90;;;17.30;56.30;;;;;;5073566;28;20170;-60
2023/05/02 07:03:53;;;;;;;2.10;1.70;;;17.30;56.30;;;;;;5073026;28;20673;-60
2023/05/02 07:06:19;;;;;;;3.38;2.00;;;17.30;56.20;;;;;;5073487;28;20207;-60
2023/05/02 07:08:44;;;;;;;3.70;1.88;;;17.30;56.20;;;;;;5074026;28;20319;-60
2023/05/02 07:11:10;;;;;;;2.10;1.88;;;17.40;56.20;;;;;;5072751;28;20225;-60
2023/05/02 07:13:35;;;;;;;4.32;2.10;;;17.40;56.20;;;;;;5074081;28;20250;-60
2023/05/02 07:16:01;;;;;;;2.65;1.90;;;17.40;56.20;;;;;;5075807;28;20170;-63
2023/05/02 07:18:26;;;;;;;4.95;1.75;;;17.30;56.20;;;;;;5077878;28;20170;-64
2023/05/02 07:20:52;;;;;;;4.68;2.22;;;17.30;56.10;;;;;;5085041;28;20186;-64
2023/05/02 07:23:18;;;;;;;3.13;1.67;;;17.30;56.10;;;;;;5077816;28;20606;-63
2023/05/02 07:25:43;;;;;;;3.30;2.30;;;17.40;56.20;;;;;;5090161;28;20209;-63
2023/05/02 07:28:09;;;;;;;2.92;1.75;;;17.30;56.10;;;;;;5073310;28;20536;-64
2023/05/02 07:30:34;;;;;;;3.13;1.85;;;17.40;56.10;;;;;;5076991;28;20249;-66
2023/05/02 07:33:00;;;;;;;4.00;2.05;;;17.40;56.10;;;;;;5093870;28;20194;-65
2023/05/02 07:35:25;;;;;;;4.32;2.00;;;17.40;56.00;;;;;;5093166;28;20614;-61
2023/05/02 07:37:51;;;;;;;3.53;1.52;;;17.40;56.10;;;;;;5092686;28;20709;-61
2023/05/02 07:40:17;;;;;;;5.35;2.25;;;17.40;56.10;;;;;;5078756;28;20270;-61
2023/05/02 07:42:43;;;;;;;3.22;1.70;;;17.40;56.00;;;;;;5073302;28;20672;-62
2023/05/02 07:45:09;;;;;;;3.28;1.80;;;17.40;56.00;;;;;;5071939;28;20197;-61
2023/05/02 07:47:34;;;;;;;4.22;1.83;;;17.40;55.80;;;;;;5073115;28;20235;-61
2023/05/02 07:50:00;;;;;;;5.28;2.05;;;17.40;55.80;;;;;;5073169;28;20180;-61
2023/05/02 07:52:25;;;;;;;3.20;1.77;;;17.40;55.80;;;;;;5072657;28;20170;-61
2023/05/02 07:54:51;;;;;;;2.15;1.67;;;17.40;55.80;;;;;;5072897;28;20174;-61
2023/05/02 07:57:17;;;;;;;3.83;1.55;;;17.30;55.80;;;;;;5086318;28;20553;-62
2023/05/02 07:59:43;;;;;;;2.90;1.63;;;17.30;55.80;;;;;;5092376;28;20223;-62
2023/05/02 08:02:08;;;;;;;2.83;1.48;;;17.20;55.70;;;;;;5093018;28;20165;-62
2023/05/02 08:04:34;;;;;;;2.80;1.75;;;17.30;55.70;;;;;;5092957;28;20224;-62
2023/05/02 08:06:59;;;;;;;3.13;1.90;;;17.30;55.70;;;;;;5092506;28;20169;-61
2023/05/02 08:09:25;;;;;;;3.13;1.83;;;17.30;55.60;;;;;;5092927;28;20185;-61
2023/05/02 08:11:50;;;;;;;3.00;2.17;;;17.30;55.50;;;;;;5093553;28;20169;-61
2023/05/02 08:14:16;;;;;;;4.47;1.98;;;17.30;55.40;;;;;;5092492;28;20189;-61
2023/05/02 08:16:41;;;;;;;4.93;1.83;;;17.30;55.40;;;;;;5093148;28;20178;-61
2023/05/02 08:19:07;;;;;;;3.90;1.50;;;17.40;55.30;;;;;;5092847;28;20174;-62
2023/05/02 08:21:33;;;;;;;2.45;1.60;;;17.40;55.10;;;;;;5092670;28;20601;-62
2023/05/02 08:23:58;;;;;;;2.90;1.45;;;17.40;55.00;;;;;;5093094;28;20555;-61
2023/05/02 08:26:24;;;;;;;1.88;1.60;;;17.50;55.00;;;;;;5092706;28;21082;-60
2023/05/02 08:28:53;;;;;;;5.70;2.28;;;17.50;54.90;;;;;;5092385;28;20180;-61
2023/05/02 08:31:19;;;;;;;2.60;1.75;;;17.50;54.90;;;;;;5079832;28;20245;-62
2023/05/02 08:33:45;;;;;;;3.53;1.90;;;17.50;54.90;;;;;;5072121;28;20182;-63
2023/05/02 08:36:12;;;;;;;3.65;1.88;;;17.60;54.90;;;;;;5072701;28;20170;-62
2023/05/02 08:38:37;;;;;;;3.22;1.90;;;17.60;54.80;;;;;;5072991;28;20186;-62
2023/05/02 08:41:08;;;;;;;2.85;1.55;;;17.60;54.70;;;;;;5072176;28;20171;-62
2023/05/02 08:43:34;;;;;;;3.67;1.80;;;17.60;54.70;;;;;;5071441;28;20550;-62
2023/05/02 08:45:59;;;;;;;3.15;2.03;;;17.60;54.60;;;;;;5072558;28;20219;-62
2023/05/02 08:48:25;;;;;;;4.03;2.00;;;17.60;54.80;;;;;;5053972;28;20266;-61
2023/05/02 08:50:51;;;;;;;2.08;1.70;;;17.60;54.80;;;;;;5073962;28;20166;-61
2023/05/02 08:53:16;;;;;;;3.92;2.20;;;17.60;54.90;;;;;;5061105;28;20181;-61
2023/05/02 08:55:42;;;;;;;2.83;1.55;;;17.60;54.70;;;;;;5060818;28;20181;-61
2023/05/02 08:58:08;;;;;;;2.88;1.88;;;17.60;54.60;;;;;;5079115;28;20175;-62
2023/05/02 09:00:40;;;;;;;4.25;1.88;;;17.60;54.70;;;;;;5079192;28;20633;-62
2023/05/02 09:03:10;;;;;;;3.40;1.70;;;17.60;54.70;;;;;;5078305;28;20218;-62
2023/05/02 09:05:39;;;;;;;2.13;1.63;;;17.60;54.50;;;;;;5079235;28;20193;-62
2023/05/02 09:08:05;;;;;;;3.17;1.80;;;17.60;54.40;;;;;;5079046;28;20178;-61
2023/05/02 09:10:30;;;;;;;3.17;1.80;;;17.60;54.60;;;;;;5078699;28;20224;-61
2023/05/02 09:12:56;;;;;;;3.75;1.58;;;17.70;54.50;;;;;;5078236;28;20182;-61
2023/05/02 09:15:21;;;;;;;2.67;1.55;;;17.70;54.40;;;;;;5078749;28;20166;-61
2023/05/02 09:17:47;;;;;;;3.10;1.42;;;17.80;54.30;;;;;;5078402;28;20206;-62
2023/05/02 09:20:14;;;;;;;2.92;1.80;;;17.80;54.30;;;;;;5078885;28;20645;-61
2023/05/02 09:22:50;;;;;;;2.05;1.25;;;17.70;54.40;;;;;;5079051;28;20206;-61
2023/05/02 09:25:15;;;;;;;3.30;1.80;;;17.70;54.40;;;;;;5078021;28;20179;-60
2023/05/02 09:27:54;;;;;;;3.15;1.48;;;17.80;54.30;;;;;;5078691;28;20222;-61
2023/05/02 09:30:22;;;;;;;3.90;1.48;;;17.80;54.30;;;;;;5082312;28;20238;-62
2023/05/02 09:32:50;;;;;;;2.63;1.70;;;17.80;54.20;;;;;;5099233;28;20264;-62
2023/05/02 09:35:22;;;;;;;2.83;1.40;;;17.80;54.20;;;;;;5098625;28;20186;-62
2023/05/02 09:37:57;;;;;;;4.97;1.90;;;17.80;54.20;;;;;;5097786;28;20185;-60
2023/05/02 09:40:23;;;;;;;3.10;1.52;;;17.80;54.30;;;;;;5098587;28;20173;-59
2023/05/02 09:42:48;;;;;;;3.35;1.70;;;17.80;54.40;;;;;;5088795;28;20202;-59
2023/05/02 09:45:24;;;;;;;3.60;1.60;;;17.70;54.40;;;;;;5076254;28;20174;-59
2023/05/02 09:47:50;;;;;;;3.10;1.50;;;17.90;54.40;;;;;;5076173;28;20201;-60
2023/05/02 09:50:35;;;;;;;3.67;1.38;;;18.00;54.10;;;;;;5078065;28;20649;-60
2023/05/02 09:53:05;;;;;;;3.47;1.48;;;18.10;54.10;;;;;;5077211;28;20182;-60
2023/05/02 09:55:31;;;;;;;3.88;1.60;;;18.10;54.40;;;;;;5078809;28;20178;-60
2023/05/02 09:57:56;;;;;;;4.53;1.88;;;18.20;54.30;;;;;;5078713;28;20194;-60
2023/05/02 10:00:23;;;;;;;4.70;1.50;;;18.30;54.10;;;;;;5077639;28;20174;-61
2023/05/02 10:02:50;;;;;;;5.40;1.63;;;18.40;54.10;;;;;;5076608;28;20292;-61
2023/05/02 10:05:16;;;;;;;3.60;1.83;;;18.40;54.10;;;;;;5074359;28;20236;-61
2023/05/02 10:07:45;;;;;;;3.83;1.70;;;18.40;53.80;;;;;;5075311;28;20182;-61
2023/05/02 10:10:13;;;;;;;4.18;1.50;;;18.30;53.90;;;;;;5073919;28;20178;-60
2023/05/02 10:12:38;;;;;;;2.15;1.25;;;18.30;54.20;;;;;;5073635;28;20181;-60
2023/05/02 10:15:04;;;;;;;3.05;1.48;;;18.20;54.20;;;;;;5057359;28;20653;-61
2023/05/02 10:17:30;;;;;;;2.92;1.55;;;18.20;54.20;;;;;;5073955;28;20170;-60
2023/05/02 10:19:59;;;;;;;3.42;1.40;;;18.20;54.20;;;;;;5073136;28;20182;-61
2023/05/02 10:22:25;;;;;;;4.03;1.80;;;18.20;54.20;;;;;;5073517;28;20220;-61
2023/05/02 10:24:50;;;;;;;3.55;1.85;;;18.20;54.10;;;;;;5057231;28;20224;-60
2023/05/02 10:27:16;;;;;;;2.75;1.52;;;18.30;54.10;;;;;;5072715;28;20229;-61
2023/05/02 10:29:41;;;;;;;1.77;1.42;;;18.30;53.90;;;;;;5075081;28;20175;-61
2023/05/02 10:32:07;;;;;;;3.08;1.40;;;18.30;53.90;;;;;;5093877;28;20185;-61
2023/05/02 10:34:35;;;;;;;2.85;1.63;;;18.20;53.90;;;;;;5094171;28;20177;-61
2023/05/02 10:37:01;;;;;;;2.30;1.65;;;18.20;54.00;;;;;;5095048;28;20166;-61
2023/05/02 10:39:27;;;;;;;3.95;1.73;;;18.20;53.90;;;;;;5094947;28;20181;-62
2023/05/02 10:41:54;;;;;;;2.17;1.52;;;18.30;53.70;;;;;;5093247;28;20180;-61
2023/05/02 10:44:35;;;;;;;3.15;1.63;;;18.30;53.40;;;;;;5093603;28;20288;-61
2023/05/02 10:47:20;;;;;;;3.35;1.75;;;18.30;53.30;;;;;;5094668;28;20174;-61
2023/05/02 10:49:53;;;;;;;2.38;1.80;;;18.30;54.10;;;;;;5093646;28;20177;-60
2023/05/02 10:52:26;;;;;;;2.13;1.48;;;18.20;53.40;;;;;;5094427;28;20284;-60
2023/05/02 10:55:09;;;;;;;2.38;1.30;;;18.30;53.50;;;;;;5093978;28;20173;-61
2023/05/02 10:57:34;;;;;;;2.25;1.33;;;18.40;53.30;;;;;;5093046;28;20229;-61
2023/05/02 11:00:21;;;;;;;1.98;1.52;;;18.50;53.20;;;;;;5094766;28;20194;-60
2023/05/02 11:02:46;;;;;;;2.42;1.42;;;18.60;53.00;;;;;;5092965;28;20233;-60
2023/05/02 11:05:12;;;;;;;2.55;1.85;;;18.50;53.00;;;;;;5094214;28;20209;-60
2023/05/02 11:07:38;;;;;;;2.00;1.52;;;18.60;53.00;;;;;;5093414;28;20169;-60
2023/05/02 11:10:15;;;;;;;1.83;1.40;;;18.50;53.20;;;;;;5093075;28;20173;-59
2023/05/02 11:12:48;;;;;;;3.30;1.80;;;18.60;53.40;;;;;;5094566;28;20196;-60
2023/05/02 11:15:26;;;;;;;2.85;1.70;;;18.50;53.40;;;;;;5093423;28;20169;-60
2023/05/02 11:18:11;;;;;;;3.03;1.80;;;18.60;53.50;;;;;;5093587;28;20201;-59
2023/05/02 11:20:38;;;;;;;3.30;1.70;;;18.70;53.40;;;;;;5094243;28;20627;-60
2023/05/02 11:23:12;;;;;;;3.88;1.55;;;18.80;53.40;;;;;;5093572;28;20224;-61
2023/05/02 11:25:40;;;;;;;5.75;1.55;;;18.70;53.50;;;;;;5094050;28;20171;-60
2023/05/02 11:28:06;;;;;;;2.75;1.70;;;18.60;53.70;;;;;;5094083;28;20536;-60
2023/05/02 11:30:39;;;;;;;2.65;1.50;;;18.60;53.80;;;;;;5093662;28;20293;-60
2023/05/02 11:33:05;;;;;;;3.05;1.65;;;18.70;53.80;;;;;;5093977;28;20181;-60
2023/05/02 11:35:30;;;;;;;3.03;1.80;;;18.80;53.80;;;;;;5094166;28;20174;-60
2023/05/02 11:38:03;;;;;;;3.55;2.10;;;18.80;53.80;;;;;;5091878;28;20170;-60
2023/05/02 11:40:29;;;;;;;4.25;2.00;;;18.80;53.80;;;;;;5093582;28;20169;-65
2023/05/02 11:42:56;;;;;;;4.57;1.90;;;18.90;54.00;;;;;;5093942;28;20229;-65
2023/05/02 11:45:22;;;;;;;5.60;1.58;;;18.90;53.90;;;;;;5092821;28;20170;-62
2023/05/02 11:47:49;;;;;;;3.20;1.60;;;19.00;53.90;;;;;;5092783;28;20181;-60
2023/05/02 11:50:14;;;;;;;3.38;1.60;;;18.90;54.10;;;;;;5093548;28;20174;-59
2023/05/02 11:52:41;;;;;;;3.08;1.42;;;18.90;54.10;;;;;;5092101;28;20178;-60
2023/05/02 11:55:10;;;;;;;5.63;1.70;;;18.90;54.20;;;;;;5093425;28;20178;-60
2023/05/02 11:57:39;;;;;;;3.42;1.80;;;18.90;54.20;;;;;;5093616;28;20204;-60
2023/05/02 12:00:09;;;;;;;3.38;1.77;;;18.90;54.20;;;;;;5093531;28;20182;-60
2023/05/02 12:02:42;;;;;;;3.00;1.60;;;19.00;54.00;;;;;;5093511;28;20185;-60
2023/05/02 12:05:12;;;;;;;3.55;1.70;;;19.00;54.10;;;;;;5092660;28;20182;-61
2023/05/02 12:07:40;;;;;;;3.90;1.90;;;19.00;54.30;;;;;;5093638;28;20223;-65
2023/05/02 12:10:06;;;;;;;2.97;1.70;;;18.90;54.30;;;;;;5093163;28;20188;-60
2023/05/02 12:12:32;;;;;;;7.45;1.60;;;18.90;54.50;;;;;;5092864;28;20173;-59
2023/05/02 12:14:57;;;;;;;2.85;1.30;;;18.80;54.50;;;;;;5093237;28;20633;-59
2023/05/02 12:17:23;;;;;;;5.40;1.73;;;18.90;54.50;;;;;;5092872;28;20173;-59
2023/05/02 12:19:49;;;;;;;4.45;1.70;;;19.00;54.30;;;;;;5092069;28;20190;-59
2023/05/02 12:22:15;;;;;;;4.53;2.08;;;19.00;54.20;;;;;;5091694;28;20518;-59
2023/05/02 12:24:40;;;;;;;3.28;1.70;;;19.00;54.00;;;;;;5091126;28;20209;-60
2023/05/02 12:27:12;;;;;;;4.80;2.13;;;19.10;54.00;;;;;;5089554;28;20218;-59
2023/05/02 12:29:44;;;;;;;3.60;1.80;;;19.10;53.90;;;;;;5093078;28;20185;-60
2023/05/02 12:32:10;;;;;;;4.57;1.98;;;19.00;53.90;;;;;;5072237;28;20625;-61
2023/05/02 12:34:36;;;;;;;2.95;1.83;;;19.10;54.00;;;;;;5054379;28;20216;-61
2023/05/02 12:37:02;;;;;;;2.80;1.70;;;19.20;53.90;;;;;;5072669;28;20182;-60
2023/05/02 12:39:41;;;;;;;5.53;2.58;;;19.20;53.80;;;;;;5072302;28;20536;-60
2023/05/02 12:42:16;;;;;;;2.53;1.73;;;19.20;53.80;;;;;;5071612;28;20529;-60
2023/05/02 12:44:43;;;;;;;2.05;1.40;;;19.30;53.70;;;;;;5072775;28;20218;-63
2023/05/02 12:47:13;;;;;;;5.15;1.80;;;19.30;53.70;;;;;;5071802;28;20626;-62
2023/05/02 12:49:53;;;;;;;2.85;1.50;;;19.40;53.60;;;;;;5072646;28;20179;-62
2023/05/02 12:52:19;;;;;;;2.50;1.67;;;19.30;53.70;;;;;;5072573;28;20261;-62